YPPHYPAD

Guest
Details From YPPH - Perth
To YPAD - Adelaide Intl
Flight Number -
Tags Generated
Created
Modified
Stats Distance 1,143 nm / 2,117 km
Max Altitude 0 ft / 0 m
Waypoints 4
Social Downloads 7
Likes 0
Share VATSIM

Download

Looking for another format? Having issues loading an existing format? Contact us
Advertisement - Login to hide

Notes

Generated

Route

YPPH HECTO VINCN YPAD

ID Type Via Altitude Latitude Longitude Leg Dist Tot Dist Heading (true) Name
O YPPH APT - 0 ft / 0 m -31.95862˚ 115.95972˚ - 0 nm - -
HECTO FIX - 0 ft / 0 m -33.00500˚ 120.51500˚ 239 nm 239 nm 106° / 104° -
VINCN FIX - 0 ft / 0 m -34.94500˚ 138.36000˚ 895 nm 1134 nm 102° / 92° -
O YPAD APT - 0 ft / 0 m -34.94168˚ 138.54233˚ 8 nm 1143 nm 89° / 89° -

Altitude Profile

Advertisement - Login to hide

Weather


0- 5 10 15 20 25 30 35+ Temperature / ° C

Clouds and Precipitation
Forecast for 2018-05-25 12:00 UTC. Updated 2 hours ago

Ground ~20,000 ft ~40,000 ft Winds

YPPH

Details ICAO YPPH (PER)
Name Perth
Region Australia
Timezone Australia/Perth (UTC+8.0)
Stats Elevation 70 ft / 21 m (AMSL)
Location -31.939673° 115.966614°
Runways 2
Magnetic Variation 1.675° W

METAR

YPPH 251100Z 30016G26KT 9999 -SHRA SCT036 16/10 Q1002

Decode

TAF

TAF YPPH 250517Z 2506/2612 31020G30KT 9999 -SHRA SCT035 BKN045 FM251800 25018G28KT 9999 -SHRA BKN025 FM260800 26012KT 9999 -SHRA SCT025 BKN040 INTER 2506/2515 31025G45KT 3000 SHRA BKN020 INTER 2515/2606 VRB25G40KT 3000 SHRA BKN015

Decode

Departure Runways

ID Width Length Bearing (true) Bearing (mag) Surface Threshold Offset Overrun Length
03 151 ft / 46 m 11,390 ft / 3,472 m 13.89° 15.56° Asphalt 0 ft / 0 m 0 ft / 0 m
06 151 ft / 46 m 7,096 ft / 2,163 m 58.78° 60.45° Asphalt 0 ft / 0 m 0 ft / 0 m
21 151 ft / 46 m 11,390 ft / 3,472 m 193.88° 195.55° Asphalt 0 ft / 0 m 0 ft / 0 m
24 151 ft / 46 m 7,096 ft / 2,163 m 238.77° 240.44° Asphalt 0 ft / 0 m 0 ft / 0 m

YPAD

Details ICAO YPAD (ADL)
Name Adelaide Intl
Region Australia
Timezone Australia/Adelaide (UTC+9.5)
Stats Elevation 20 ft / 6 m (AMSL)
Location -34.947439° 138.529850°
Runways 2
Magnetic Variation 7.921° E

METAR

YPAD 251100Z 05006KT CAVOK 14/05 Q1024 NOSIG

Decode

TAF

TAF YPAD 250504Z 2506/2612 04010KT CAVOK

Decode

Destination Runways

ID Width Length Bearing (true) Bearing (mag) Surface Threshold Offset Overrun Length
05 151 ft / 46 m 10,173 ft / 3,101 m 50.14° 42.22° Asphalt 518 ft / 158 m 0 ft / 0 m
12 151 ft / 46 m 5,414 ft / 1,650 m 123.61° 115.69° Asphalt 0 ft / 0 m 0 ft / 0 m
23 151 ft / 46 m 10,173 ft / 3,101 m 230.13° 222.21° Asphalt 0 ft / 0 m 203 ft / 62 m
30 151 ft / 46 m 5,414 ft / 1,650 m 303.60° 295.68° Asphalt 0 ft / 0 m 0 ft / 0 m

Approach Navaids

Runway Type Ident Frequency Range Bearing (true) Bearing (mag) Slope Elevation
23 Localiser IAD 109.70 MHz 18 nm / 33 km 230.13° 222.20° - 20 ft / 6 m (AMSL)
23 Glidescope IAD 109.70 MHz 10 nm / 19 km 230.13° 222.21° 3.00° 20 ft / 6 m (AMSL)

Popular Alternatives